Yates, Illinois
Current Conditions -  °F | °C
As of 2:35 AM on Monday 22 Dec 2014 (Local Time) from KPNT Reporting Station
Overcast Overcast  
Wind Chill: 24°   Ceiling: 4100
Heat Index: 34°   Visibility: 7mi
Dew Point: 31°   Wind: 15mph
Humidity: 90%   Direction: 140°SE
Pressure: 29.96"   Gusts: NA
Location:  40.7409°N, 88.7189°W
Report Text: KPNT 220835Z AUTO 14013KT 7SM OVC041 01/00 A2996 RMK AO2 T00101005
Loading
Personal Weather Stations






























Interactive Weather Map New forecast layout! Learn more

10-Day Weather Forecast

Advertisements
Track Severe Weather on mobile